Time;durP1;ratioP1;P1;durP2;ratioP2;P2;SDS_P1;SDS_P2;PMS_P1;PMS_P2;Temp;Humidity;BMP_temperature;BMP_pressure;BME280_temperature;BME280_humidity;BME280_pressure;Samples;Min_cycle;Max_cycle;Signal;HPM_P1;HPM_P2
2023/03/06 00:01:16;;;;;;;0.40;0.40;;;;;;;4.38;77.16;100317.25;5162469;28;20085;-81
2023/03/06 00:03:46;;;;;;;1.63;1.50;;;;;;;4.22;77.21;100308.72;5153609;28;20105;-80
2023/03/06 00:06:17;;;;;;;0.93;0.93;;;;;;;4.23;78.07;100315.63;5160354;28;20608;-82
2023/03/06 00:08:47;;;;;;;3.20;1.90;;;;;;;4.32;77.24;100307.78;5149014;28;20556;-80
2023/03/06 00:11:18;;;;;;;0.77;0.77;;;;;;;4.30;77.44;100309.53;5132465;28;20022;-79
2023/03/06 00:13:49;;;;;;;1.73;1.63;;;;;;;4.21;77.65;100309.59;5137429;28;20544;-81
2023/03/06 00:16:19;;;;;;;0.95;0.95;;;;;;;4.18;77.78;100294.00;5145974;28;20085;-81
2023/03/06 00:18:50;;;;;;;0.85;0.85;;;;;;;4.25;77.11;100298.31;5131704;28;20130;-80
2023/03/06 00:21:21;;;;;;;1.40;1.30;;;;;;;4.19;77.45;100300.94;5155867;28;20094;-81
2023/03/06 00:23:51;;;;;;;0.88;0.88;;;;;;;4.17;77.30;100297.50;5149710;28;20114;-81
2023/03/06 00:26:22;;;;;;;0.77;0.77;;;;;;;4.10;78.09;100292.34;5133756;28;20015;-81
2023/03/06 00:28:52;;;;;;;0.45;0.45;;;;;;;3.92;79.25;100292.50;5135676;28;20688;-81
2023/03/06 00:31:22;;;;;;;1.67;1.58;;;;;;;3.81;79.79;100294.28;5129502;28;20632;-80
2023/03/06 00:33:53;;;;;;;0.88;0.80;;;;;;;3.72;79.98;100290.88;5140655;28;20041;-79
2023/03/06 00:36:23;;;;;;;0.93;0.93;;;;;;;3.95;78.65;100287.25;5141047;28;20052;-81
2023/03/06 00:38:54;;;;;;;0.73;0.73;;;;;;;3.85;78.88;100280.41;5147310;28;20081;-81
2023/03/06 00:41:25;;;;;;;1.02;1.02;;;;;;;3.89;78.35;100282.97;5148821;28;20034;-81
2023/03/06 00:43:56;;;;;;;1.45;1.35;;;;;;;3.91;77.48;100281.22;5132405;28;20078;-80
2023/03/06 00:46:26;;;;;;;0.90;0.90;;;;;;;3.88;78.21;100272.59;5126809;28;20031;-80
2023/03/06 00:48:57;;;;;;;1.33;1.33;;;;;;;3.92;78.48;100269.97;5127198;28;20530;-81
2023/03/06 00:51:27;;;;;;;0.70;0.70;;;;;;;4.08;77.96;100268.16;5148657;28;20741;-82
2023/03/06 00:53:58;;;;;;;0.85;0.85;;;;;;;3.98;78.32;100266.50;5133366;28;20030;-81
2023/03/06 00:56:28;;;;;;;2.40;2.22;;;;;;;3.97;78.43;100262.16;5154627;28;20038;-80
2023/03/06 00:58:59;;;;;;;0.65;0.65;;;;;;;4.01;78.23;100261.25;5177392;28;20030;-78
2023/03/06 01:01:29;;;;;;;0.82;0.77;;;;;;;3.96;78.46;100260.44;5185184;28;20120;-78
2023/03/06 01:04:00;;;;;;;1.05;0.98;;;;;;;3.87;79.35;100252.72;5171025;28;20102;-78
2023/03/06 01:06:31;;;;;;;0.20;0.20;;;;;;;3.72;80.07;100254.53;5157884;28;20126;-81
2023/03/06 01:09:02;;;;;;;2.45;2.30;;;;;;;3.69;80.28;100254.56;5136451;28;20027;-82
2023/03/06 01:11:33;;;;;;;3.88;1.35;;;;;;;3.71;79.56;100252.81;5139449;28;20784;-81
2023/03/06 01:14:03;;;;;;;2.13;1.05;;;;;;;3.58;80.54;100246.84;5142343;28;20046;-81
2023/03/06 01:16:34;;;;;;;1.17;1.08;;;;;;;3.62;80.40;100247.69;5152748;28;20046;-80
2023/03/06 01:19:05;;;;;;;0.50;0.50;;;;;;;3.55;81.14;100244.28;5163388;28;20047;-81
2023/03/06 01:21:35;;;;;;;1.05;1.05;;;;;;;3.47;81.24;100241.72;5148875;28;20022;-79
2023/03/06 01:24:06;;;;;;;1.85;1.48;;;;;;;3.45;81.20;100240.00;5148376;28;20046;-80
2023/03/06 01:26:36;;;;;;;0.60;0.60;;;;;;;3.45;81.45;100237.41;5136344;28;20035;-79
2023/03/06 01:29:07;;;;;;;0.50;0.50;;;;;;;3.49;80.49;100236.50;5142355;28;20054;-83
2023/03/06 01:31:37;;;;;;;0.75;0.75;;;;;;;3.53;80.66;100232.16;5136627;28;20524;-79
2023/03/06 01:34:08;;;;;;;0.88;0.88;;;;;;;3.57;80.63;100226.97;5146023;28;20136;-79
2023/03/06 01:36:38;;;;;;;0.40;0.40;;;;;;;3.62;79.67;100233.00;5139600;28;20038;-82
2023/03/06 01:39:09;;;;;;;1.85;1.40;;;;;;;3.65;79.66;100221.72;5144206;28;20046;-82
2023/03/06 01:41:39;;;;;;;0.95;0.95;;;;;;;3.60;80.46;100216.56;5147831;28;20030;-79
2023/03/06 01:44:12;;;;;;;0.85;0.85;;;;;;;3.60;80.15;100213.09;5125904;28;20122;-80
2023/03/06 01:46:44;;;;;;;1.57;1.47;;;;;;;3.57;80.20;100213.13;5140293;28;20042;-79
2023/03/06 01:49:22;;;;;;;1.08;1.08;;;;;;;3.61;79.96;100205.31;5135817;28;20270;-82
2023/03/06 01:51:52;;;;;;;0.40;0.40;;;;;;;3.56;80.45;100206.22;5136822;28;20418;-79
2023/03/06 01:54:27;;;;;;;0.90;0.90;;;;;;;3.62;80.75;100203.56;5147892;28;20049;-79
2023/03/06 01:57:04;;;;;;;0.47;0.47;;;;;;;3.77;79.63;100202.63;5158947;28;20081;-79
2023/03/06 01:59:36;;;;;;;0.50;0.50;;;;;;;3.62;79.95;100195.78;5164123;28;20063;-80
2023/03/06 02:02:10;;;;;;;0.70;0.70;;;;;;;3.53;80.51;100195.84;5151222;28;20034;-79
2023/03/06 02:04:42;;;;;;;1.15;1.05;;;;;;;3.65;79.90;100192.31;5133852;28;20813;-80
2023/03/06 02:07:15;;;;;;;0.73;0.73;;;;;;;3.61;79.96;100188.88;5136045;28;20418;-80
2023/03/06 02:09:46;;;;;;;0.70;0.70;;;;;;;3.73;79.23;100187.94;5156614;28;20062;-79
2023/03/06 02:12:18;;;;;;;0.57;0.57;;;;;;;3.70;79.62;100182.78;5135967;28;20031;-81
2023/03/06 02:14:50;;;;;;;1.23;0.93;;;;;;;3.80;78.78;100175.78;5137195;28;20903;-80
2023/03/06 02:17:22;;;;;;;3.50;2.60;;;;;;;3.75;79.13;100176.69;5149219;28;20064;-80
2023/03/06 02:20:14;;;;;;;0.65;0.65;;;;;;;3.58;79.98;100174.19;5140438;28;20042;-79
2023/03/06 02:23:00;;;;;;;0.95;0.95;;;;;;;3.59;80.22;100178.53;5153089;28;20027;-80
2023/03/06 02:25:33;;;;;;;1.17;1.17;;;;;;;3.65;80.10;100176.75;5171409;28;20031;-79
2023/03/06 02:28:07;;;;;;;1.88;1.75;;;;;;;3.71;80.03;100166.34;5150949;28;20125;-80
2023/03/06 02:30:38;;;;;;;1.52;1.50;;;;;;;3.71;80.18;100162.00;5166373;28;20040;-80
2023/03/06 02:33:17;;;;;;;0.70;0.70;;;;;;;3.58;80.81;100163.81;5146918;28;20038;-80
2023/03/06 02:35:57;;;;;;;1.10;1.10;;;;;;;3.55;80.91;100153.50;5140247;28;20047;-80
2023/03/06 02:38:32;;;;;;;1.40;1.40;;;;;;;3.72;80.38;100160.28;5151903;28;20543;-81
2023/03/06 02:41:07;;;;;;;2.50;2.30;;;;;;;3.80;79.64;100160.22;5153151;28;20085;-79
2023/03/06 02:43:39;;;;;;;1.42;1.35;;;;;;;3.80;80.33;100157.59;5149963;28;20426;-79
2023/03/06 02:46:10;;;;;;;3.25;1.55;;;;;;;3.89;79.20;100162.72;5165185;28;20041;-80
2023/03/06 02:48:40;;;;;;;0.60;0.60;;;;;;;3.96;78.40;100153.16;5168526;28;20035;-81
2023/03/06 02:51:11;;;;;;;1.20;1.20;;;;;;;4.03;77.72;100153.06;5144703;28;20080;-80
2023/03/06 02:53:41;;;;;;;2.65;1.63;;;;;;;4.14;77.85;100154.72;5132754;28;20065;-80
2023/03/06 02:56:11;;;;;;;1.90;1.75;;;;;;;4.23;76.64;100144.25;5130964;28;20092;-80
2023/03/06 02:58:42;;;;;;;1.50;1.27;;;;;;;4.18;77.70;100144.28;5150503;28;20051;-80
2023/03/06 03:01:13;;;;;;;0.75;0.75;;;;;;;4.12;78.55;100146.94;5134601;28;20031;-80
2023/03/06 03:03:43;;;;;;;1.52;1.45;;;;;;;4.19;77.61;100146.00;5147952;28;20050;-79
2023/03/06 03:06:14;;;;;;;1.00;0.82;;;;;;;4.28;77.15;100145.03;5148274;28;20038;-80
2023/03/06 03:08:44;;;;;;;1.65;1.02;;;;;;;4.24;77.60;100145.97;5151572;28;20038;-80
2023/03/06 03:11:15;;;;;;;0.98;0.98;;;;;;;4.15;77.77;100143.47;5149912;28;20030;-79
2023/03/06 03:13:45;;;;;;;1.90;1.80;;;;;;;4.08;78.77;100147.84;5141279;28;20098;-81
2023/03/06 03:16:16;;;;;;;1.75;1.65;;;;;;;4.24;77.35;100136.41;5141330;28;20038;-80
2023/03/06 03:18:46;;;;;;;0.82;0.82;;;;;;;4.21;77.63;100143.38;5130585;28;20045;-80
2023/03/06 03:21:17;;;;;;;0.90;0.90;;;;;;;4.23;77.33;100141.66;5152110;28;20050;-80
2023/03/06 03:23:47;;;;;;;1.10;1.00;;;;;;;4.20;78.04;100141.66;5135785;28;20072;-80
2023/03/06 03:26:20;;;;;;;1.65;1.55;;;;;;;4.10;78.82;100131.38;5150543;28;20042;-81
2023/03/06 03:28:50;;;;;;;1.47;1.37;;;;;;;4.19;77.88;100135.63;5148020;28;20328;-79
2023/03/06 03:31:21;;;;;;;1.25;1.25;;;;;;;4.35;77.09;100133.72;5150136;28;20034;-80
2023/03/06 03:33:51;;;;;;;1.75;1.65;;;;;;;4.07;78.10;100130.53;5155895;28;20541;-80
2023/03/06 03:36:22;;;;;;;1.17;1.17;;;;;;;4.21;77.71;100127.81;5147579;28;20035;-80
2023/03/06 03:38:53;;;;;;;1.50;1.40;;;;;;;4.18;77.66;100123.50;5134344;28;20070;-79
2023/03/06 03:41:23;;;;;;;1.27;1.23;;;;;;;4.21;77.44;100123.50;5137927;28;20572;-79
2023/03/06 03:43:54;;;;;;;0.60;0.60;;;;;;;4.28;77.09;100120.81;5150719;28;20123;-80
2023/03/06 03:46:25;;;;;;;1.55;1.42;;;;;;;4.29;76.72;100120.78;5150713;28;20026;-80
2023/03/06 03:48:55;;;;;;;1.50;1.48;;;;;;;4.21;77.81;100123.50;5134484;28;20034;-81
2023/03/06 03:51:26;;;;;;;1.13;1.13;;;;;;;4.31;77.21;100110.38;5145770;28;20050;-81
2023/03/06 03:53:56;;;;;;;1.90;1.80;;;;;;;4.37;76.46;100108.59;5150770;28;20037;-80
2023/03/06 03:56:27;;;;;;;1.73;1.63;;;;;;;4.44;76.48;100105.91;5133361;28;20085;-80
2023/03/06 03:58:58;;;;;;;2.08;1.95;;;;;;;4.32;76.97;100100.00;5128083;28;20035;-80
2023/03/06 04:01:28;;;;;;;2.38;1.98;;;;;;;4.09;78.41;100090.69;5135675;28;20022;-81
2023/03/06 04:03:59;;;;;;;1.52;1.30;;;;;;;4.28;77.49;100093.09;5128625;28;20042;-80
2023/03/06 04:06:29;;;;;;;0.70;0.70;;;;;;;4.37;76.28;100087.81;5134965;28;20033;-80
2023/03/06 04:08:59;;;;;;;0.88;0.88;;;;;;;4.40;76.95;100087.78;5140011;28;20047;-80
2023/03/06 04:11:30;;;;;;;1.05;1.05;;;;;;;4.20;78.09;100077.63;5146863;28;20050;-80
2023/03/06 04:14:02;;;;;;;1.05;1.05;;;;;;;3.95;79.29;100082.19;5133924;28;20541;-82
2023/03/06 04:16:32;;;;;;;2.53;2.33;;;;;;;3.99;79.45;100068.34;5156210;28;20659;-81
2023/03/06 04:19:03;;;;;;;1.98;1.88;;;;;;;3.99;78.43;100070.94;5129784;28;20034;-81
2023/03/06 04:21:33;;;;;;;2.15;2.05;;;;;;;3.96;79.41;100070.09;5144868;28;20080;-80
2023/03/06 04:24:05;;;;;;;2.20;2.10;;;;;;;4.07;78.06;100069.09;5133119;28;20034;-80
2023/03/06 04:26:35;;;;;;;2.03;1.63;;;;;;;4.26;77.16;100061.09;5155639;28;20026;-80
2023/03/06 04:29:06;;;;;;;1.20;0.95;;;;;;;4.27;76.65;100064.56;5160388;28;20045;-80
2023/03/06 04:31:36;;;;;;;2.08;1.88;;;;;;;4.25;77.02;100062.00;5145786;28;20176;-81
2023/03/06 04:34:07;;;;;;;1.95;1.85;;;;;;;4.25;77.36;100062.00;5165149;28;20114;-82
2023/03/06 04:36:37;;;;;;;1.85;1.75;;;;;;;4.19;78.14;100059.44;5132163;28;20078;-80
2023/03/06 04:39:08;;;;;;;2.60;2.40;;;;;;;4.07;78.79;100057.84;5149610;28;20129;-80
2023/03/06 04:41:39;;;;;;;3.50;2.03;;;;;;;4.25;76.47;100057.66;5142022;28;20084;-81
2023/03/06 04:44:10;;;;;;;1.63;1.52;;;;;;;4.15;77.67;100047.38;5178341;28;20047;-79
2023/03/06 04:46:40;;;;;;;1.08;1.02;;;;;;;4.14;77.92;100049.09;5160054;28;20039;-79
2023/03/06 04:49:11;;;;;;;2.78;2.47;;;;;;;4.21;76.83;100048.19;5166191;28;20054;-78
2023/03/06 04:51:41;;;;;;;1.15;1.15;;;;;;;4.21;76.91;100050.78;5163366;28;20055;-81
2023/03/06 04:54:12;;;;;;;1.10;1.10;;;;;;;4.28;76.64;100046.34;5169226;28;20478;-79
2023/03/06 04:56:42;;;;;;;1.40;1.40;;;;;;;4.24;77.68;100042.09;5151952;28;20494;-80
2023/03/06 04:59:13;;;;;;;1.98;1.88;;;;;;;4.16;77.24;100041.31;5137395;28;20074;-81
2023/03/06 05:01:44;;;;;;;5.05;2.92;;;;;;;4.30;76.55;100044.59;5138594;28;20078;-80
2023/03/06 05:04:15;;;;;;;1.08;1.08;;;;;;;4.27;76.34;100044.63;5132512;28;20132;-81
2023/03/06 05:06:45;;;;;;;1.17;1.17;;;;;;;4.34;76.45;100041.06;5137207;28;20027;-80
2023/03/06 05:09:16;;;;;;;2.08;1.98;;;;;;;4.38;76.16;100047.13;5140942;28;20094;-80
2023/03/06 05:11:46;;;;;;;1.52;1.48;;;;;;;4.28;76.83;100051.53;5137062;28;20031;-80
2023/03/06 05:14:16;;;;;;;2.40;2.20;;;;;;;4.33;77.07;100043.69;5134730;28;20030;-81
2023/03/06 05:16:47;;;;;;;4.55;2.95;;;;;;;4.18;77.82;100049.94;5145274;28;20049;-78
2023/03/06 05:19:17;;;;;;;1.67;1.58;;;;;;;4.04;78.29;100047.50;5145753;28;20043;-79
2023/03/06 05:21:48;;;;;;;2.15;2.05;;;;;;;4.12;77.86;100044.81;5155649;28;20038;-78
2023/03/06 05:24:19;;;;;;;2.88;2.67;;;;;;;4.17;77.16;100045.63;5125457;28;20604;-79
2023/03/06 05:26:49;;;;;;;1.10;1.10;;;;;;;4.24;76.46;100044.69;5150983;28;20033;-81
2023/03/06 05:29:20;;;;;;;3.00;2.25;;;;;;;4.14;76.91;100049.09;5137317;28;20536;-82
2023/03/06 05:31:50;;;;;;;3.03;1.30;;;;;;;4.11;77.58;100054.34;5162750;28;20054;-82
2023/03/06 05:34:21;;;;;;;6.78;2.53;;;;;;;4.03;77.05;100044.03;5160710;28;20065;-82
2023/03/06 05:36:51;;;;;;;2.40;1.60;;;;;;;4.13;76.56;100047.41;5149008;28;20084;-82
2023/03/06 05:39:22;;;;;;;1.05;1.05;;;;;;;4.13;76.83;100054.31;5132234;28;20039;-79
2023/03/06 05:41:52;;;;;;;1.38;1.33;;;;;;;4.01;76.99;100045.78;5142974;28;20162;-81
2023/03/06 05:44:23;;;;;;;3.22;2.20;;;;;;;3.98;77.31;100051.03;5147014;28;20068;-82
2023/03/06 05:46:53;;;;;;;2.00;1.90;;;;;;;3.85;77.83;100052.00;5163176;28;20026;-82
2023/03/06 05:49:24;;;;;;;4.22;3.35;;;;;;;3.67;78.04;100038.38;5137003;28;20035;-81
2023/03/06 05:51:54;;;;;;;2.13;1.92;;;;;;;3.62;77.84;100034.94;5142313;28;20035;-82
2023/03/06 05:54:25;;;;;;;0.70;0.70;;;;;;;3.70;77.44;100043.50;5144914;28;20030;-79
2023/03/06 05:56:56;;;;;;;1.85;1.73;;;;;;;3.67;77.33;100038.38;5143552;28;20467;-78
2023/03/06 05:59:27;;;;;;;5.78;5.32;;;;;;;3.75;77.19;100036.56;5143304;28;20034;-78
2023/03/06 06:02:02;;;;;;;3.67;3.42;;;;;;;3.87;76.55;100040.75;5144456;28;20018;-77
2023/03/06 06:04:33;;;;;;;1.13;1.13;;;;;;;3.71;77.74;100045.25;5138499;28;20126;-78
2023/03/06 06:07:05;;;;;;;2.50;2.30;;;;;;;3.71;77.52;100034.84;5132572;28;20109;-80
2023/03/06 06:09:35;;;;;;;1.80;1.70;;;;;;;3.75;77.54;100035.69;5163672;28;20123;-79
2023/03/06 06:12:06;;;;;;;1.27;1.25;;;;;;;3.78;77.53;100033.91;5153718;28;20050;-79
2023/03/06 06:14:37;;;;;;;0.85;0.85;;;;;;;3.75;78.03;100041.75;5155938;28;20060;-80
2023/03/06 06:17:07;;;;;;;2.47;2.15;;;;;;;3.82;77.33;100036.50;5144281;28;20859;-79
2023/03/06 06:19:38;;;;;;;5.95;1.88;;;;;;;3.85;76.93;100032.13;5145009;28;20057;-78
2023/03/06 06:22:08;;;;;;;1.77;1.67;;;;;;;3.89;76.62;100035.56;5142078;28;20413;-79
2023/03/06 06:24:39;;;;;;;1.77;1.67;;;;;;;3.82;77.19;100032.16;5151349;28;20038;-78
2023/03/06 06:27:09;;;;;;;2.00;1.52;;;;;;;3.75;78.00;100030.50;5153920;28;20109;-77
2023/03/06 06:29:40;;;;;;;1.17;1.17;;;;;;;3.72;77.83;100039.19;5142796;28;20039;-78
2023/03/06 06:32:10;;;;;;;1.70;1.50;;;;;;;3.89;76.98;100032.94;5125839;28;20134;-78
2023/03/06 06:34:41;;;;;;;1.48;1.40;;;;;;;3.75;77.44;100027.91;5129872;28;20417;-77
2023/03/06 06:37:12;;;;;;;1.48;1.38;;;;;;;3.78;77.58;100033.06;5156095;28;20111;-77
2023/03/06 06:39:42;;;;;;;3.22;2.95;;;;;;;3.96;75.68;100037.19;5144774;28;20096;-77
2023/03/06 06:42:12;;;;;;;3.45;1.65;;;;;;;4.02;76.00;100031.94;5143288;28;20141;-79
2023/03/06 06:44:43;;;;;;;2.33;1.67;;;;;;;4.10;75.42;100037.91;5140119;28;20826;-78
2023/03/06 06:47:13;;;;;;;0.93;0.93;;;;;;;4.09;76.13;100043.13;5157035;28;20039;-78
2023/03/06 06:49:48;;;;;;;1.08;1.08;;;;;;;4.12;75.82;100037.03;5123922;28;20552;-78
2023/03/06 06:52:19;;;;;;;2.67;2.47;;;;;;;4.12;76.50;100039.63;5149677;28;20532;-77
2023/03/06 06:54:51;;;;;;;1.60;1.58;;;;;;;4.18;75.72;100049.94;5130077;28;20031;-78
2023/03/06 06:57:21;;;;;;;2.53;2.38;;;;;;;4.10;75.93;100048.28;5141752;28;20093;-78
2023/03/06 06:59:52;;;;;;;1.13;1.10;;;;;;;4.16;75.66;100038.72;5127467;28;20042;-78
2023/03/06 07:02:22;;;;;;;2.03;1.52;;;;;;;3.95;76.73;100043.25;5129936;28;20117;-78
2023/03/06 07:04:53;;;;;;;1.23;1.23;;;;;;;3.95;77.08;100043.25;5144116;28;20988;-77
2023/03/06 07:07:23;;;;;;;4.53;3.28;;;;;;;3.76;77.65;100048.63;5143797;28;21047;-78
2023/03/06 07:09:54;;;;;;;1.73;1.63;;;;;;;3.97;76.96;100048.47;5156804;28;20078;-78
2023/03/06 07:12:25;;;;;;;3.65;2.13;;;;;;;3.96;76.48;100047.59;5145542;28;20093;-77
2023/03/06 07:14:55;;;;;;;2.15;2.05;;;;;;;3.71;77.63;100044.38;5142406;28;20034;-78
2023/03/06 07:17:25;;;;;;;2.50;2.38;;;;;;;3.68;78.62;100045.25;5139764;28;20055;-78
2023/03/06 07:19:56;;;;;;;1.23;1.23;;;;;;;3.85;77.61;100052.91;5143615;28;20042;-78
2023/03/06 07:22:26;;;;;;;1.73;1.65;;;;;;;3.99;76.60;100049.28;5124973;28;20125;-78
2023/03/06 07:24:57;;;;;;;1.23;1.23;;;;;;;3.75;77.83;100052.13;5132659;28;20034;-79
2023/03/06 07:27:28;;;;;;;2.55;2.05;;;;;;;3.86;77.49;100051.16;5133303;28;20852;-78
2023/03/06 07:29:58;;;;;;;2.08;1.98;;;;;;;3.91;77.68;100057.16;5157797;28;20122;-78
2023/03/06 07:32:29;;;;;;;2.85;2.60;;;;;;;3.78;78.21;100046.03;5142980;28;20121;-78
2023/03/06 07:34:59;;;;;;;1.77;1.67;;;;;;;3.86;77.58;100048.53;5146246;28;20632;-78
2023/03/06 07:37:30;;;;;;;2.67;2.47;;;;;;;4.00;76.62;100045.81;5143476;28;20121;-78
2023/03/06 07:40:00;;;;;;;2.63;2.42;;;;;;;3.85;77.66;100046.81;5146632;28;20108;-78
2023/03/06 07:42:31;;;;;;;11.57;3.55;;;;;;;3.71;77.47;100045.25;5142625;28;20926;-78
2023/03/06 07:45:03;;;;;;;1.65;1.55;;;;;;;3.74;77.61;100045.22;5128204;28;20031;-78
2023/03/06 07:47:34;;;;;;;0.88;0.88;;;;;;;3.82;77.36;100039.09;5154461;28;20026;-77
2023/03/06 07:50:06;;;;;;;2.35;2.15;;;;;;;3.75;76.79;100041.75;5131813;28;20094;-77
2023/03/06 07:52:36;;;;;;;1.25;1.15;;;;;;;3.87;76.95;100047.69;5145833;28;20023;-78
2023/03/06 07:55:08;;;;;;;3.90;2.33;;;;;;;3.92;76.65;100053.69;5158808;28;20050;-78
2023/03/06 07:57:39;;;;;;;1.23;1.23;;;;;;;3.84;77.50;100052.91;5145452;28;20651;-78
2023/03/06 08:00:13;;;;;;;1.67;1.58;;;;;;;3.70;77.15;100055.66;5141358;28;20041;-78
2023/03/06 08:02:44;;;;;;;0.70;0.70;;;;;;;3.72;76.98;100056.50;5144429;28;20553;-78
2023/03/06 08:05:15;;;;;;;1.17;1.17;;;;;;;3.87;76.52;100050.28;5145998;28;20038;-78
2023/03/06 08:07:46;;;;;;;2.75;2.63;;;;;;;3.93;76.86;100045.00;5143924;28;20464;-78
2023/03/06 08:10:16;;;;;;;2.92;2.80;;;;;;;3.77;77.37;100047.75;5145939;28;20110;-78
2023/03/06 08:12:47;;;;;;;1.90;1.80;;;;;;;3.93;76.72;100045.00;5149090;28;20164;-78
2023/03/06 08:15:17;;;;;;;1.73;1.63;;;;;;;3.84;77.26;100048.56;5132538;28;20049;-78
2023/03/06 08:17:48;;;;;;;3.55;3.35;;;;;;;3.80;77.32;100051.22;5132028;28;20655;-78
2023/03/06 08:20:19;;;;;;;2.30;2.17;;;;;;;3.87;76.89;100052.88;5137426;28;20027;-78
2023/03/06 08:22:49;;;;;;;5.38;2.72;;;;;;;3.82;77.66;100041.69;5155834;28;20521;-78
2023/03/06 08:25:20;;;;;;;1.77;1.67;;;;;;;3.76;77.21;100043.44;5162422;28;20046;-78
2023/03/06 08:27:51;;;;;;;2.63;2.45;;;;;;;3.62;77.55;100040.13;5151047;28;20093;-78
2023/03/06 08:30:21;;;;;;;1.90;1.80;;;;;;;3.71;77.63;100044.38;5147084;28;20034;-78
2023/03/06 08:32:52;;;;;;;2.80;2.28;;;;;;;3.70;77.57;100038.31;5150002;28;20070;-78
2023/03/06 08:35:22;;;;;;;1.55;1.45;;;;;;;3.57;78.19;100042.78;5150660;28;20069;-78
2023/03/06 08:37:53;;;;;;;4.22;3.92;;;;;;;3.65;77.97;100034.06;5146461;28;20045;-79
2023/03/06 08:40:29;;;;;;;2.05;1.95;;;;;;;3.76;77.01;100032.22;5149920;28;20164;-78
2023/03/06 08:42:59;;;;;;;1.00;1.00;;;;;;;3.81;77.58;100035.63;5126761;28;20050;-78
2023/03/06 08:45:30;;;;;;;2.58;2.45;;;;;;;3.90;77.23;100032.94;5145453;28;20034;-78
2023/03/06 08:48:00;;;;;;;3.35;1.95;;;;;;;3.91;77.35;100031.22;5131151;28;20026;-78
2023/03/06 08:50:30;;;;;;;2.63;2.42;;;;;;;3.85;78.07;100033.84;5159725;28;20029;-78
2023/03/06 08:53:01;;;;;;;2.72;2.47;;;;;;;3.81;77.81;100039.97;5127078;28;20094;-78
2023/03/06 08:55:35;;;;;;;1.40;1.33;;;;;;;3.88;77.36;100044.22;5132921;28;20879;-78
2023/03/06 08:58:06;;;;;;;2.85;2.65;;;;;;;3.70;77.67;100043.50;5125587;28;20360;-78
2023/03/06 09:00:36;;;;;;;1.55;1.45;;;;;;;3.71;78.07;100040.06;5153235;28;20029;-78
2023/03/06 09:03:07;;;;;;;7.28;4.20;;;;;;;3.74;77.98;100034.84;5147870;28;20038;-79
2023/03/06 09:05:39;;;;;;;2.65;2.45;;;;;;;3.80;77.99;100038.25;5129154;28;20460;-79
2023/03/06 09:08:09;;;;;;;3.60;3.30;;;;;;;3.89;77.86;100032.94;5151453;28;20034;-79
2023/03/06 09:10:45;;;;;;;1.02;1.02;;;;;;;3.99;76.92;100034.59;5134872;28;20046;-79
2023/03/06 09:13:15;;;;;;;1.48;1.38;;;;;;;3.96;77.53;100038.94;5150273;28;20057;-79
2023/03/06 09:15:46;;;;;;;4.10;3.75;;;;;;;3.89;77.21;100036.41;5163905;28;20041;-79
2023/03/06 09:18:16;;;;;;;1.45;1.45;;;;;;;3.85;77.39;100045.09;5161469;28;20054;-79
2023/03/06 09:20:47;;;;;;;2.30;1.95;;;;;;;3.84;77.38;100034.75;5148306;28;20178;-79
2023/03/06 09:23:17;;;;;;;3.03;2.45;;;;;;;3.97;77.55;100038.94;5160174;28;20046;-79
2023/03/06 09:25:53;;;;;;;1.70;1.60;;;;;;;3.97;77.10;100033.72;5153716;28;20042;-79
2023/03/06 09:28:24;;;;;;;1.92;1.83;;;;;;;3.97;77.58;100036.31;5163794;28;20070;-79
2023/03/06 09:30:54;;;;;;;0.98;0.98;;;;;;;4.07;76.57;100042.25;5141023;28;20056;-79
2023/03/06 09:33:27;;;;;;;1.50;1.45;;;;;;;4.04;77.48;100043.16;5129454;28;20113;-79
2023/03/06 09:35:57;;;;;;;1.73;1.63;;;;;;;4.16;76.80;100047.34;5139824;28;20043;-78
2023/03/06 09:38:28;;;;;;;12.02;2.33;;;;;;;4.18;76.65;100039.53;5155518;28;20117;-79
2023/03/06 09:41:35;;;;;;;1.92;1.52;;;;;;;4.29;76.31;100044.63;5151318;28;20026;-78
2023/03/06 09:44:13;;;;;;;1.10;1.10;;;;;;;4.33;75.60;100041.97;5158798;28;20164;-79
2023/03/06 09:46:49;;;;;;;1.25;1.15;;;;;;;4.23;74.48;100042.97;5124345;28;20038;-78
2023/03/06 09:49:38;;;;;;;5.18;2.40;;;;;;;4.25;74.97;100047.25;5153062;28;20064;-79
2023/03/06 09:52:33;;;;;;;3.67;1.77;;;;;;;4.39;75.03;100043.63;5125657;28;20031;-79
2023/03/06 09:55:03;;;;;;;1.73;1.65;;;;;;;4.31;75.00;100050.66;5146092;28;20430;-79
2023/03/06 09:57:41;;;;;;;0.93;0.93;;;;;;;4.17;74.58;100045.63;5160504;28;20032;-78
2023/03/06 10:00:19;;;;;;;2.92;1.70;;;;;;;4.20;74.24;100043.00;5130737;28;20049;-79
2023/03/06 10:03:06;;;;;;;1.02;1.02;;;;;;;4.22;75.01;100041.25;5127628;28;20455;-77
2023/03/06 10:05:41;;;;;;;2.17;2.03;;;;;;;4.13;74.64;100049.13;5139006;28;20405;-77
2023/03/06 10:08:31;;;;;;;2.40;1.70;;;;;;;4.28;75.02;100046.34;5146034;28;21354;-78
2023/03/06 10:11:07;;;;;;;0.98;0.98;;;;;;;4.25;76.07;100044.66;5145125;28;20038;-78
2023/03/06 10:13:48;;;;;;;0.80;0.80;;;;;;;4.18;75.87;100039.53;5157673;28;20062;-78
2023/03/06 10:16:28;;;;;;;2.35;2.20;;;;;;;4.25;76.15;100036.03;5134622;28;20799;-77
2023/03/06 10:19:02;;;;;;;2.55;1.85;;;;;;;4.26;76.53;100037.72;5143565;28;20118;-78
2023/03/06 10:21:32;;;;;;;0.80;0.80;;;;;;;4.27;76.91;100039.44;5150305;28;20026;-78
2023/03/06 10:24:41;;;;;;;1.52;1.45;;;;;;;4.10;77.63;100043.09;5145435;28;20041;-78
2023/03/06 10:27:35;;;;;;;2.25;2.00;;;;;;;4.01;78.57;100038.00;5155212;28;20041;-79
2023/03/06 10:30:09;;;;;;;3.58;1.95;;;;;;;3.92;78.16;100040.72;5164092;28;20125;-78
2023/03/06 10:32:57;;;;;;;1.88;1.77;;;;;;;3.96;78.71;100034.59;5138080;28;20027;-78
2023/03/06 10:35:31;;;;;;;3.17;2.95;;;;;;;3.93;78.47;100039.81;5148467;28;20405;-77
2023/03/06 10:38:18;;;;;;;1.50;1.40;;;;;;;4.03;78.49;100033.66;5141196;28;20109;-77
2023/03/06 10:41:07;;;;;;;3.03;2.67;;;;;;;4.08;79.05;100034.47;5138238;28;20046;-78
2023/03/06 10:44:01;;;;;;;3.67;3.38;;;;;;;4.10;78.65;100039.66;5136993;28;20051;-78
2023/03/06 10:46:34;;;;;;;2.33;2.15;;;;;;;4.23;78.02;100035.19;5144841;28;20113;-78
2023/03/06 10:49:29;;;;;;;0.77;0.77;;;;;;;4.19;78.29;100044.75;5140436;28;20117;-77
2023/03/06 10:52:20;;;;;;;1.35;1.20;;;;;;;4.25;78.21;100041.22;5124652;28;20216;-78
2023/03/06 10:54:51;;;;;;;2.15;2.05;;;;;;;4.24;77.72;100044.69;5154747;28;20038;-78
2023/03/06 10:57:31;;;;;;;2.00;1.50;;;;;;;4.28;78.10;100046.34;5142170;28;20057;-78
2023/03/06 11:00:21;;;;;;;1.92;1.77;;;;;;;4.31;78.00;100046.31;5143528;28;20069;-78
2023/03/06 11:03:21;;;;;;;1.23;1.23;;;;;;;4.29;77.29;100048.06;5124799;28;20034;-78
2023/03/06 11:05:59;;;;;;;1.13;1.13;;;;;;;4.24;77.16;100050.72;5138825;28;20043;-78
2023/03/06 11:08:30;;;;;;;2.10;2.00;;;;;;;4.28;76.64;100046.34;5138543;28;20054;-78
2023/03/06 11:11:09;;;;;;;3.92;2.55;;;;;;;4.32;75.32;100047.16;5131133;28;20549;-78
2023/03/06 11:13:42;;;;;;;1.83;1.73;;;;;;;4.36;75.95;100052.31;5139341;28;20038;-78
2023/03/06 11:16:29;;;;;;;2.45;1.67;;;;;;;4.39;76.34;100044.50;5144348;28;20057;-78
2023/03/06 11:19:04;;;;;;;0.95;0.95;;;;;;;4.49;75.63;100049.56;5146002;28;20112;-80
2023/03/06 11:21:36;;;;;;;1.58;1.48;;;;;;;4.56;76.07;100051.22;5137622;28;20031;-80
2023/03/06 11:24:18;;;;;;;2.00;1.80;;;;;;;4.41;76.21;100063.53;5142612;28;20061;-80
2023/03/06 11:27:06;;;;;;;0.43;0.43;;;;;;;4.40;76.36;100054.00;5127016;28;20093;-78
2023/03/06 11:29:42;;;;;;;1.45;1.35;;;;;;;4.37;76.65;100056.63;5123361;28;20646;-78
2023/03/06 11:32:21;;;;;;;1.35;1.25;;;;;;;4.40;77.32;100055.72;5162519;28;20537;-77
2023/03/06 11:34:58;;;;;;;2.10;1.63;;;;;;;4.49;76.77;100046.97;5138130;28;20046;-77
2023/03/06 11:37:51;;;;;;;1.88;1.77;;;;;;;4.39;78.06;100044.50;5144795;28;20085;-78
2023/03/06 11:40:30;;;;;;;1.48;1.48;;;;;;;4.37;78.50;100050.59;5125033;28;20207;-79
2023/03/06 11:43:23;;;;;;;6.80;3.25;;;;;;;4.51;77.45;100047.78;5158365;28;20046;-78
2023/03/06 11:46:22;;;;;;;1.40;1.35;;;;;;;4.51;77.78;100047.78;5169153;28;20106;-78
2023/03/06 11:48:55;;;;;;;0.50;0.50;;;;;;;4.50;78.44;100046.94;5145042;28;20062;-79
2023/03/06 11:51:30;;;;;;;1.85;1.75;;;;;;;4.52;78.03;100046.91;5131708;28;20029;-79
2023/03/06 11:54:01;;;;;;;1.08;1.08;;;;;;;4.51;78.33;100037.41;5131754;28;20041;-80
2023/03/06 11:56:51;;;;;;;4.68;2.95;;;;;;;4.49;78.42;100039.19;5143955;28;20100;-79
2023/03/06 11:59:41;;;;;;;2.15;2.00;;;;;;;4.61;78.53;100038.16;5128871;28;20121;-79
2023/03/06 12:02:26;;;;;;;1.48;1.38;;;;;;;4.78;77.75;100031.00;5145299;28;20109;-79